createdAt,value
2022-08-16T00:01:03.998Z,20.25
2022-08-16T00:03:37.655Z,20.34
2022-08-16T00:06:04.759Z,20.43
2022-08-16T00:08:37.043Z,20.42
2022-08-16T00:11:15.536Z,20.25
2022-08-16T00:13:53.861Z,20.31
2022-08-16T00:17:05.458Z,20.15
2022-08-16T00:19:23.976Z,20.06
2022-08-16T00:21:54.515Z,20.01
2022-08-16T00:24:32.760Z,19.97
2022-08-16T00:27:02.544Z,19.97
2022-08-16T00:29:30.173Z,20.09
2022-08-16T00:32:00.430Z,20.12
2022-08-16T00:34:44.373Z,20.14
2022-08-16T00:37:18.498Z,20.28
2022-08-16T00:39:57.319Z,20.38
2022-08-16T00:42:31.694Z,20.56
2022-08-16T00:45:25.042Z,20.61
2022-08-16T00:47:53.075Z,20.63
2022-08-16T00:50:36.002Z,20.53
2022-08-16T00:53:10.051Z,20.48
2022-08-16T00:55:41.961Z,20.48
2022-08-16T00:58:13.199Z,20.56
2022-08-16T01:00:45.721Z,20.60
2022-08-16T01:03:31.613Z,20.63
2022-08-16T01:06:39.654Z,20.53
2022-08-16T01:08:53.816Z,20.62
2022-08-16T01:11:24.375Z,20.71
2022-08-16T01:13:56.928Z,20.75
2022-08-16T01:16:28.428Z,20.68
2022-08-16T01:19:02.676Z,20.58
2022-08-16T01:21:36.185Z,20.43
2022-08-16T01:24:53.030Z,20.61
2022-08-16T01:27:28.457Z,20.69
2022-08-16T01:30:19.353Z,20.73
2022-08-16T01:33:02.859Z,20.65
2022-08-16T01:36:12.068Z,20.62
2022-08-16T01:38:48.979Z,20.54
2022-08-16T01:41:22.750Z,20.38
2022-08-16T01:43:54.070Z,20.32
2022-08-16T01:46:39.864Z,20.23
2022-08-16T01:49:43.060Z,20.26
2022-08-16T01:52:29.301Z,20.10
2022-08-16T01:55:22.547Z,20.08
2022-08-16T01:57:53.490Z,20.00
2022-08-16T02:00:28.961Z,20.04
2022-08-16T02:02:58.027Z,20.03
2022-08-16T02:05:24.831Z,19.95
2022-08-16T02:07:53.508Z,19.75
2022-08-16T02:10:21.033Z,19.57
2022-08-16T02:12:56.006Z,19.74
2022-08-16T02:15:30.386Z,19.75
2022-08-16T02:18:01.190Z,19.82
2022-08-16T02:20:32.231Z,19.71
2022-08-16T02:23:01.550Z,19.58
2022-08-16T02:25:50.830Z,19.43
2022-08-16T02:28:17.203Z,19.53
2022-08-16T02:30:50.625Z,19.23
2022-08-16T02:33:18.638Z,19.02
2022-08-16T02:35:53.935Z,18.92
2022-08-16T02:38:31.612Z,18.99
2022-08-16T02:41:02.130Z,19.04
2022-08-16T02:43:36.034Z,19.11
2022-08-16T02:46:08.042Z,19.10
2022-08-16T02:48:38.662Z,19.14
2022-08-16T02:51:11.430Z,19.15
2022-08-16T02:53:45.140Z,19.03
2022-08-16T02:56:15.650Z,18.91
2022-08-16T02:58:46.060Z,18.99
2022-08-16T03:01:24.693Z,18.93
2022-08-16T03:04:41.500Z,19.01
2022-08-16T03:06:43.176Z,19.05
2022-08-16T03:09:20.492Z,19.00
2022-08-16T03:11:52.082Z,18.88
2022-08-16T03:14:20.886Z,18.95
2022-08-16T03:16:59.617Z,18.91
2022-08-16T03:19:48.554Z,18.88
2022-08-16T03:22:28.125Z,18.67
2022-08-16T03:25:01.440Z,18.64
2022-08-16T03:27:32.401Z,18.81
2022-08-16T03:30:16.287Z,18.69
2022-08-16T03:32:51.398Z,18.73
2022-08-16T03:35:33.262Z,18.81
2022-08-16T03:38:34.200Z,18.77
2022-08-16T03:40:58.766Z,18.91
2022-08-16T03:43:51.359Z,18.88
2022-08-16T03:46:47.281Z,18.73
2022-08-16T03:49:05.056Z,18.59
2022-08-16T03:51:34.600Z,18.69
2022-08-16T03:54:12.115Z,18.65
2022-08-16T03:56:57.863Z,18.71
2022-08-16T03:59:30.262Z,18.66
2022-08-16T04:02:12.141Z,18.64
2022-08-16T04:04:50.584Z,18.67
2022-08-16T04:07:17.574Z,18.91
2022-08-16T04:09:47.152Z,18.95
2022-08-16T04:12:53.077Z,19.11
2022-08-16T04:15:02.879Z,19.29
2022-08-16T04:17:36.368Z,19.17
2022-08-16T04:20:23.858Z,19.22
2022-08-16T04:22:57.713Z,19.30
2022-08-16T04:25:27.155Z,19.34
2022-08-16T04:27:55.996Z,19.23
2022-08-16T04:30:31.920Z,19.27
2022-08-16T04:33:02.241Z,19.51
2022-08-16T04:35:34.539Z,19.67
2022-08-16T04:38:10.607Z,19.61
2022-08-16T04:40:48.014Z,19.89
2022-08-16T04:43:17.647Z,20.04
2022-08-16T04:45:45.712Z,20.08
2022-08-16T04:48:21.736Z,19.90
2022-08-16T04:50:56.830Z,20.12
2022-08-16T04:53:36.706Z,20.20
2022-08-16T04:56:11.170Z,20.32
2022-08-16T04:58:45.456Z,20.48
2022-08-16T05:01:15.361Z,20.61
2022-08-16T05:04:00.752Z,20.63
2022-08-16T05:06:42.310Z,20.68
2022-08-16T05:09:36.565Z,20.71
2022-08-16T05:12:06.458Z,20.86
2022-08-16T05:14:45.809Z,20.96
2022-08-16T05:17:19.834Z,20.94
2022-08-16T05:19:57.971Z,21.20
2022-08-16T05:22:33.057Z,21.31
2022-08-16T05:25:08.684Z,21.30
2022-08-16T05:27:42.921Z,21.39
2022-08-16T05:30:35.275Z,21.45
2022-08-16T05:33:01.436Z,21.60
2022-08-16T05:35:28.458Z,21.63
2022-08-16T05:38:30.899Z,21.63
2022-08-16T05:41:00.757Z,21.62
2022-08-16T05:43:43.405Z,21.68
2022-08-16T05:46:28.611Z,21.73
2022-08-16T05:49:05.913Z,21.82
2022-08-16T05:51:38.332Z,21.87
2022-08-16T05:54:08.367Z,21.94
2022-08-16T05:56:39.279Z,22.00
2022-08-16T05:59:07.505Z,22.02
2022-08-16T06:01:37.792Z,22.15
2022-08-16T06:04:12.729Z,22.22
2022-08-16T06:06:56.593Z,22.38
2022-08-16T06:09:43.068Z,22.48
2022-08-16T06:12:27.074Z,22.72
2022-08-16T06:15:07.649Z,22.84
2022-08-16T06:17:42.438Z,22.98
2022-08-16T06:20:23.438Z,23.14
2022-08-16T06:22:57.698Z,23.37
2022-08-16T06:25:36.336Z,23.52
2022-08-16T06:28:09.444Z,23.62
2022-08-16T06:30:44.057Z,23.79
2022-08-16T06:33:19.933Z,23.94
2022-08-16T06:35:55.151Z,24.08
2022-08-16T06:38:33.601Z,24.28
2022-08-16T06:41:14.047Z,24.40
2022-08-16T06:43:43.154Z,24.48
2022-08-16T06:46:31.771Z,24.68
2022-08-16T06:49:13.306Z,24.78
2022-08-16T06:51:46.358Z,24.90
2022-08-16T06:54:18.971Z,25.03
2022-08-16T06:56:46.086Z,25.12
2022-08-16T06:59:14.745Z,25.21
2022-08-16T07:01:54.443Z,25.27
2022-08-16T07:04:32.791Z,25.39
2022-08-16T07:07:19.427Z,25.55
2022-08-16T07:09:47.799Z,25.63
2022-08-16T07:12:19.477Z,25.67
2022-08-16T07:14:49.058Z,25.72
2022-08-16T07:17:19.434Z,25.85
2022-08-16T07:20:03.083Z,25.91
2022-08-16T07:22:52.910Z,25.91
2022-08-16T07:25:34.941Z,26.06
2022-08-16T07:28:09.335Z,26.17
2022-08-16T07:30:46.020Z,26.29
2022-08-16T07:33:52.629Z,26.38
2022-08-16T07:36:27.218Z,26.48
2022-08-16T07:38:56.492Z,26.51
2022-08-16T07:41:24.652Z,26.60
2022-08-16T07:43:59.882Z,26.62
2022-08-16T07:46:39.671Z,26.61
2022-08-16T07:49:21.956Z,26.72
2022-08-16T07:51:48.891Z,26.79
2022-08-16T07:54:32.259Z,26.90
2022-08-16T07:57:08.406Z,26.93
2022-08-16T07:59:45.679Z,27.07
2022-08-16T08:02:19.656Z,27.01
2022-08-16T08:04:51.861Z,27.12
2022-08-16T08:07:19.152Z,27.17
2022-08-16T08:09:48.877Z,27.22
2022-08-16T08:12:32.286Z,27.26
2022-08-16T08:15:09.594Z,27.31
2022-08-16T08:17:42.624Z,27.29
2022-08-16T08:20:23.909Z,27.38
2022-08-16T08:23:00.714Z,27.42
2022-08-16T08:25:53.722Z,27.54
2022-08-16T08:28:21.189Z,27.63
2022-08-16T08:31:01.573Z,27.66
2022-08-16T08:33:33.928Z,27.67
2022-08-16T08:36:05.193Z,27.68
2022-08-16T08:38:45.332Z,27.70
2022-08-16T08:41:18.275Z,27.80
2022-08-16T08:43:50.637Z,27.90
2022-08-16T08:46:21.224Z,27.80
2022-08-16T08:49:02.008Z,27.93
2022-08-16T08:51:38.342Z,27.92
2022-08-16T08:54:10.853Z,27.94
2022-08-16T08:56:45.280Z,27.94
2022-08-16T08:59:33.788Z,27.97
2022-08-16T09:02:09.238Z,28.05
2022-08-16T09:04:51.708Z,28.12
2022-08-16T09:07:23.638Z,28.24
2022-08-16T09:10:06.145Z,28.40
2022-08-16T09:12:37.257Z,28.41
2022-08-16T09:15:10.238Z,28.38
2022-08-16T09:17:51.609Z,28.39
2022-08-16T09:20:23.765Z,28.34
2022-08-16T09:22:54.415Z,28.33
2022-08-16T09:25:33.790Z,28.36
2022-08-16T09:28:09.427Z,28.35
2022-08-16T09:30:45.031Z,28.33
2022-08-16T09:33:18.390Z,28.35
2022-08-16T09:35:53.839Z,28.32
2022-08-16T09:38:31.791Z,28.23
2022-08-16T09:41:01.158Z,28.12
2022-08-16T09:43:58.570Z,28.08
2022-08-16T09:46:48.661Z,28.22
2022-08-16T09:49:03.564Z,28.32
2022-08-16T09:51:36.933Z,28.26
2022-08-16T09:54:05.513Z,28.33
2022-08-16T09:56:35.427Z,28.37
2022-08-16T09:59:08.193Z,28.39
2022-08-16T10:01:38.533Z,28.43
2022-08-16T10:04:30.244Z,28.41
2022-08-16T10:09:44.725Z,28.53
2022-08-16T10:12:31.320Z,28.52
2022-08-16T10:15:00.160Z,28.56
2022-08-16T10:17:27.863Z,28.55
2022-08-16T10:19:55.361Z,28.56
2022-08-16T10:22:23.265Z,28.70
2022-08-16T10:24:56.009Z,28.93
2022-08-16T10:27:46.977Z,28.87
2022-08-16T10:30:25.257Z,28.89
2022-08-16T10:32:55.506Z,28.98
2022-08-16T10:35:22.918Z,29.08
2022-08-16T10:37:52.387Z,29.18
2022-08-16T10:40:29.222Z,29.24
2022-08-16T10:43:00.327Z,29.34
2022-08-16T10:45:29.227Z,29.39
2022-08-16T10:48:23.932Z,29.39
2022-08-16T10:50:58.088Z,29.48
2022-08-16T10:53:32.967Z,29.74
2022-08-16T10:56:52.014Z,29.65
2022-08-16T10:58:53.359Z,29.79
2022-08-16T11:01:43.659Z,29.87
2022-08-16T11:05:04.931Z,30.00
2022-08-16T11:07:43.328Z,30.16
2022-08-16T11:09:43.203Z,30.21
2022-08-16T11:12:13.988Z,30.34
2022-08-16T11:15:11.336Z,30.43
2022-08-16T11:17:28.429Z,30.50
2022-08-16T11:20:36.691Z,30.40
2022-08-16T11:22:48.885Z,30.51
2022-08-16T11:28:10.736Z,30.64
2022-08-16T11:30:39.349Z,30.89
2022-08-16T11:33:07.945Z,31.14
2022-08-16T11:35:43.695Z,31.28
2022-08-16T11:38:47.266Z,31.35
2022-08-16T11:41:02.013Z,31.40
2022-08-16T11:43:31.781Z,31.47
2022-08-16T11:46:34.173Z,31.61
2022-08-16T11:48:50.922Z,31.73
2022-08-16T11:51:17.747Z,31.84
2022-08-16T11:53:45.077Z,31.88
2022-08-16T11:56:11.950Z,31.76
2022-08-16T11:58:41.836Z,31.74
2022-08-16T12:01:10.778Z,31.66
2022-08-16T12:03:37.508Z,31.68
2022-08-16T12:06:25.181Z,31.67
2022-08-16T12:09:01.758Z,31.30
2022-08-16T12:11:31.705Z,31.32
2022-08-16T12:14:00.843Z,31.25
2022-08-16T12:16:31.268Z,31.26
2022-08-16T12:19:02.315Z,31.15
2022-08-16T12:21:35.866Z,31.05
2022-08-16T12:24:18.238Z,31.12
2022-08-16T12:26:45.127Z,31.05
2022-08-16T12:29:11.977Z,31.01
2022-08-16T12:31:38.952Z,31.00
2022-08-16T12:34:28.663Z,30.99
2022-08-16T12:36:56.279Z,31.07
2022-08-16T12:39:23.483Z,31.12
2022-08-16T12:41:56.384Z,31.10
2022-08-16T12:44:26.610Z,31.13
2022-08-16T12:47:16.891Z,31.11
2022-08-16T12:49:43.637Z,31.26
2022-08-16T12:52:33.205Z,31.26
2022-08-16T12:54:59.606Z,31.25
2022-08-16T12:57:36.584Z,31.25
2022-08-16T13:00:07.427Z,31.35
2022-08-16T13:02:36.447Z,31.39
2022-08-16T13:05:07.087Z,31.32
2022-08-16T13:07:37.599Z,31.28
2022-08-16T13:10:21.147Z,31.29
2022-08-16T13:13:01.562Z,31.30
2022-08-16T13:15:29.475Z,31.32
2022-08-16T13:17:57.883Z,31.41
2022-08-16T13:20:29.116Z,31.47
2022-08-16T13:23:06.422Z,31.48
2022-08-16T13:25:35.892Z,31.50
2022-08-16T13:28:04.593Z,31.57
2022-08-16T13:30:36.121Z,31.68
2022-08-16T13:33:10.867Z,31.68
2022-08-16T13:35:43.021Z,31.79
2022-08-16T13:38:24.495Z,31.71
2022-08-16T13:40:55.993Z,31.65
2022-08-16T13:43:25.003Z,31.69
2022-08-16T13:45:53.319Z,31.68
2022-08-16T13:48:25.014Z,31.59
2022-08-16T13:50:56.338Z,31.80
2022-08-16T13:53:25.589Z,31.82
2022-08-16T13:55:58.684Z,31.83
2022-08-16T13:58:35.519Z,31.80
2022-08-16T14:01:10.031Z,31.77
2022-08-16T14:03:39.372Z,31.71
2022-08-16T14:06:07.115Z,31.71
2022-08-16T14:08:42.459Z,31.68
2022-08-16T14:11:12.721Z,31.74
2022-08-16T14:13:44.304Z,31.65
2022-08-16T14:16:24.213Z,31.64
2022-08-16T14:18:57.075Z,31.54
2022-08-16T14:21:24.139Z,31.64
2022-08-16T14:23:54.529Z,31.68
2022-08-16T14:26:24.875Z,31.68
2022-08-16T14:28:52.563Z,31.64
2022-08-16T14:31:21.632Z,31.69
2022-08-16T14:33:50.512Z,31.95
2022-08-16T14:36:18.758Z,31.90
2022-08-16T14:38:57.893Z,31.80
2022-08-16T14:41:25.378Z,31.84
2022-08-16T14:43:52.125Z,31.76
2022-08-16T14:46:19.008Z,31.76
2022-08-16T14:48:46.428Z,31.70
2022-08-16T14:51:15.823Z,31.68
2022-08-16T14:53:45.353Z,31.71
2022-08-16T14:56:17.300Z,31.69
2022-08-16T14:58:59.501Z,31.59
2022-08-16T15:01:57.477Z,31.55
2022-08-16T15:04:13.790Z,31.51
2022-08-16T15:07:00.469Z,31.39
2022-08-16T15:09:27.430Z,31.19
2022-08-16T15:11:54.471Z,31.10
2022-08-16T15:14:21.145Z,31.06
2022-08-16T15:16:49.307Z,31.00
2022-08-16T15:19:16.136Z,30.94
2022-08-16T15:21:43.916Z,30.95
2022-08-16T15:24:16.829Z,30.89
2022-08-16T15:26:49.459Z,30.86
2022-08-16T15:29:16.352Z,30.88
2022-08-16T15:31:44.477Z,30.89
2022-08-16T15:34:22.119Z,30.92
2022-08-16T15:36:53.931Z,30.93
2022-08-16T15:39:30.315Z,30.81
2022-08-16T15:42:11.036Z,30.71
2022-08-16T15:44:44.748Z,30.62
2022-08-16T15:47:22.341Z,30.50
2022-08-16T15:49:55.664Z,30.39
2022-08-16T15:52:30.395Z,30.37
2022-08-16T15:55:13.145Z,30.34
2022-08-16T15:57:51.362Z,30.33
2022-08-16T16:00:20.846Z,30.38
2022-08-16T16:02:49.512Z,30.35
2022-08-16T16:05:17.139Z,30.33
2022-08-16T16:07:55.813Z,30.72
2022-08-16T16:10:28.368Z,30.88
2022-08-16T16:12:58.147Z,30.54
2022-08-16T16:15:30.000Z,30.43
2022-08-16T16:17:57.543Z,30.33
2022-08-16T16:20:27.043Z,30.27
2022-08-16T16:23:01.620Z,30.15
2022-08-16T16:25:29.963Z,30.11
2022-08-16T16:27:59.633Z,29.97
2022-08-16T16:30:42.957Z,29.91
2022-08-16T16:33:21.039Z,29.82
2022-08-16T16:35:55.436Z,29.68
2022-08-16T16:38:28.997Z,29.67
2022-08-16T16:41:08.949Z,29.66
2022-08-16T16:43:42.375Z,29.70
2022-08-16T16:46:43.126Z,29.97
2022-08-16T16:48:58.076Z,30.03
2022-08-16T16:51:28.006Z,29.77
2022-08-16T16:53:56.913Z,29.64
2022-08-16T16:56:31.402Z,29.50
2022-08-16T16:59:09.391Z,29.39
2022-08-16T17:01:57.015Z,29.32
2022-08-16T17:04:31.556Z,29.22
2022-08-16T17:06:59.812Z,29.15
2022-08-16T17:09:26.516Z,29.07
2022-08-16T17:11:54.936Z,29.00
2022-08-16T17:14:33.539Z,28.92
2022-08-16T17:17:08.609Z,28.88
2022-08-16T17:19:40.131Z,28.74
2022-08-16T17:22:14.697Z,28.68
2022-08-16T17:24:44.918Z,28.58
2022-08-16T17:27:18.110Z,28.60
2022-08-16T17:29:47.680Z,28.45
2022-08-16T17:32:46.484Z,28.39
2022-08-16T17:35:17.851Z,28.32
2022-08-16T17:37:51.435Z,28.24
2022-08-16T17:40:45.974Z,28.12
2022-08-16T17:43:14.961Z,28.04
2022-08-16T17:45:42.442Z,27.98
2022-08-16T17:48:09.739Z,27.93
2022-08-16T17:50:37.502Z,27.82
2022-08-16T17:53:06.081Z,27.83
2022-08-16T17:55:36.160Z,27.76
2022-08-16T17:58:19.799Z,27.69
2022-08-16T18:00:51.734Z,27.67
2022-08-16T18:04:02.865Z,27.59
2022-08-16T18:06:12.701Z,27.54
2022-08-16T18:08:40.672Z,27.47
2022-08-16T18:11:10.484Z,27.46
2022-08-16T18:13:42.935Z,27.61
2022-08-16T18:16:10.342Z,27.42
2022-08-16T18:18:37.108Z,27.53
2022-08-16T18:21:22.486Z,27.37
2022-08-16T18:23:49.505Z,27.26
2022-08-16T18:26:16.219Z,27.23
2022-08-16T18:28:43.069Z,27.23
2022-08-16T18:31:10.361Z,27.04
2022-08-16T18:33:43.303Z,26.94
2022-08-16T18:36:20.927Z,27.00
2022-08-16T18:38:49.841Z,27.09
2022-08-16T18:41:17.803Z,27.02
2022-08-16T18:44:23.513Z,27.07
2022-08-16T18:46:31.321Z,27.11
2022-08-16T18:48:58.038Z,27.04
2022-08-16T18:51:25.737Z,26.92
2022-08-16T18:53:53.146Z,26.85
2022-08-16T18:56:19.977Z,26.84
2022-08-16T18:58:46.765Z,26.81
2022-08-16T19:01:13.711Z,26.69
2022-08-16T19:03:40.681Z,26.56
2022-08-16T19:06:13.813Z,26.50
2022-08-16T19:08:43.687Z,26.48
2022-08-16T19:11:15.106Z,26.36
2022-08-16T19:13:44.380Z,26.24
2022-08-16T19:16:11.777Z,26.20
2022-08-16T19:18:38.576Z,26.16
2022-08-16T19:21:06.374Z,26.16
2022-08-16T19:23:35.658Z,26.13
2022-08-16T19:26:26.354Z,26.09
2022-08-16T19:28:59.059Z,26.10
2022-08-16T19:31:30.351Z,25.98
2022-08-16T19:33:57.566Z,25.89
2022-08-16T19:36:32.402Z,25.87
2022-08-16T19:39:06.859Z,25.73
2022-08-16T19:41:39.036Z,25.67
2022-08-16T19:44:06.808Z,25.79
2022-08-16T19:46:34.009Z,25.88
2022-08-16T19:49:01.025Z,25.89
2022-08-16T19:51:28.021Z,25.87
2022-08-16T19:53:54.868Z,25.85
2022-08-16T19:56:25.603Z,25.87
2022-08-16T19:59:17.638Z,25.85
2022-08-16T20:01:42.313Z,25.82
2022-08-16T20:04:12.699Z,25.65
2022-08-16T20:06:40.769Z,25.53
2022-08-16T20:09:07.641Z,25.53
2022-08-16T20:11:35.268Z,25.40
2022-08-16T20:14:02.652Z,25.28
2022-08-16T20:16:29.982Z,25.35
2022-08-16T20:18:56.749Z,25.44
2022-08-16T20:21:24.307Z,25.40
2022-08-16T20:23:51.472Z,25.29
2022-08-16T20:26:18.919Z,25.25
2022-08-16T20:28:54.331Z,25.19
2022-08-16T20:31:25.430Z,25.18
2022-08-16T20:33:53.326Z,25.11
2022-08-16T20:36:20.288Z,25.01
2022-08-16T20:38:47.837Z,25.01
2022-08-16T20:41:16.758Z,24.93
2022-08-16T20:43:43.765Z,24.75
2022-08-16T20:46:12.631Z,24.66
2022-08-16T20:48:39.809Z,24.73
2022-08-16T20:51:10.394Z,24.63
2022-08-16T20:53:42.366Z,24.69
2022-08-16T20:56:11.095Z,24.76
2022-08-16T20:58:38.452Z,24.85
2022-08-16T21:01:07.339Z,24.83
2022-08-16T21:03:34.702Z,24.69
2022-08-16T21:06:02.273Z,24.48
2022-08-16T21:08:53.109Z,24.57
2022-08-16T21:11:17.272Z,24.38
2022-08-16T21:13:44.070Z,24.33
2022-08-16T21:16:10.816Z,24.39
2022-08-16T21:18:37.686Z,24.45
2022-08-16T21:21:04.580Z,24.48
2022-08-16T21:23:31.255Z,24.45
2022-08-16T21:25:59.783Z,24.55
2022-08-16T21:28:41.553Z,24.36
2022-08-16T21:31:15.075Z,24.36
2022-08-16T21:33:43.222Z,24.25
2022-08-16T21:36:11.349Z,24.19
2022-08-16T21:38:38.999Z,24.05
2022-08-16T21:41:08.021Z,24.10
2022-08-16T21:43:35.260Z,24.02
2022-08-16T21:46:03.705Z,23.94
2022-08-16T21:48:33.944Z,23.94
2022-08-16T21:51:04.569Z,23.91
2022-08-16T21:53:31.570Z,23.77
2022-08-16T21:55:59.266Z,23.70
2022-08-16T21:58:26.133Z,23.69
2022-08-16T22:00:53.269Z,23.69
2022-08-16T22:03:21.158Z,23.65
2022-08-16T22:06:11.816Z,23.67
2022-08-16T22:08:47.830Z,23.63
2022-08-16T22:11:22.540Z,23.60
2022-08-16T22:13:58.322Z,23.54
2022-08-16T22:16:32.503Z,23.45
2022-08-16T22:18:59.782Z,23.41
2022-08-16T22:21:26.888Z,23.43
2022-08-16T22:23:56.734Z,23.33
2022-08-16T22:26:34.431Z,23.33
2022-08-16T22:29:06.723Z,23.30
2022-08-16T22:31:33.932Z,23.24
2022-08-16T22:34:01.912Z,23.26
2022-08-16T22:36:30.345Z,23.21
2022-08-16T22:38:59.128Z,23.20
2022-08-16T22:41:28.721Z,23.26
2022-08-16T22:43:56.328Z,23.29
2022-08-16T22:46:23.222Z,23.24
2022-08-16T22:48:50.902Z,23.25
2022-08-16T22:51:23.362Z,23.15
2022-08-16T22:53:50.667Z,23.16
2022-08-16T22:56:17.790Z,23.15
2022-08-16T22:58:45.784Z,23.20
2022-08-16T23:01:13.387Z,23.20
2022-08-16T23:03:40.920Z,23.23
2022-08-16T23:06:09.027Z,23.16
2022-08-16T23:08:40.528Z,23.16
2022-08-16T23:11:10.456Z,23.08
2022-08-16T23:13:37.415Z,23.04
2022-08-16T23:16:10.732Z,22.98
2022-08-16T23:18:38.973Z,23.00
2022-08-16T23:21:09.176Z,22.94
2022-08-16T23:23:37.447Z,22.93
2022-08-16T23:26:44.926Z,22.93
2022-08-16T23:28:52.360Z,22.91
2022-08-16T23:31:22.039Z,22.84
2022-08-16T23:33:48.805Z,22.89
2022-08-16T23:36:15.753Z,22.90
2022-08-16T23:38:43.009Z,22.84
2022-08-16T23:41:12.053Z,22.77
2022-08-16T23:43:43.170Z,22.73
2022-08-16T23:46:14.969Z,22.74
2022-08-16T23:49:45.137Z,22.65
2022-08-16T23:51:29.394Z,22.61
2022-08-16T23:53:56.247Z,22.62
2022-08-16T23:56:23.055Z,22.52
2022-08-16T23:58:52.601Z,22.51
